sensor_id;sensor_type;location;lat;lon;timestamp;temperature;humidity
69533;DHT22;56729;52.036;5.332;2022-09-28T00:00:47;8.90;99.90
69533;DHT22;56729;52.036;5.332;2022-09-28T00:01:52;8.90;99.90
69533;DHT22;56729;52.036;5.332;2022-09-28T00:02:55;8.90;99.90
69533;DHT22;56729;52.036;5.332;2022-09-28T00:03:58;8.90;99.90
69533;DHT22;56729;52.036;5.332;2022-09-28T00:05:00;8.90;99.90
69533;DHT22;56729;52.036;5.332;2022-09-28T00:06:04;8.90;99.90
69533;DHT22;56729;52.036;5.332;2022-09-28T00:07:07;8.90;99.90
69533;DHT22;56729;52.036;5.332;2022-09-28T00:08:09;8.90;99.90
69533;DHT22;56729;52.036;5.332;2022-09-28T00:09:11;8.90;99.90
69533;DHT22;56729;52.036;5.332;2022-09-28T00:10:12;8.90;99.90
69533;DHT22;56729;52.036;5.332;2022-09-28T00:11:16;8.80;99.90
69533;DHT22;56729;52.036;5.332;2022-09-28T00:12:19;8.80;99.90
69533;DHT22;56729;52.036;5.332;2022-09-28T00:13:23;8.80;99.90
69533;DHT22;56729;52.036;5.332;2022-09-28T00:14:25;8.80;99.90
69533;DHT22;56729;52.036;5.332;2022-09-28T00:15:27;8.80;99.90
69533;DHT22;56729;52.036;5.332;2022-09-28T00:16:32;8.80;99.90
69533;DHT22;56729;52.036;5.332;2022-09-28T00:17:34;8.80;99.90
69533;DHT22;56729;52.036;5.332;2022-09-28T00:18:36;8.80;99.90
69533;DHT22;56729;52.036;5.332;2022-09-28T00:19:39;8.80;99.90
69533;DHT22;56729;52.036;5.332;2022-09-28T00:20:41;8.80;99.90
69533;DHT22;56729;52.036;5.332;2022-09-28T00:21:43;8.80;99.90
69533;DHT22;56729;52.036;5.332;2022-09-28T00:22:45;8.80;99.90
69533;DHT22;56729;52.036;5.332;2022-09-28T00:23:47;8.80;99.90
69533;DHT22;56729;52.036;5.332;2022-09-28T00:25:10;8.80;99.90
69533;DHT22;56729;52.036;5.332;2022-09-28T00:26:11;8.80;99.90
69533;DHT22;56729;52.036;5.332;2022-09-28T00:27:13;8.70;99.90
69533;DHT22;56729;52.036;5.332;2022-09-28T00:28:15;8.70;99.90
69533;DHT22;56729;52.036;5.332;2022-09-28T00:29:31;8.70;99.90
69533;DHT22;56729;52.036;5.332;2022-09-28T00:30:33;8.70;99.90
69533;DHT22;56729;52.036;5.332;2022-09-28T00:31:35;8.60;99.90
69533;DHT22;56729;52.036;5.332;2022-09-28T00:32:37;8.60;99.90
69533;DHT22;56729;52.036;5.332;2022-09-28T00:33:39;8.60;99.90
69533;DHT22;56729;52.036;5.332;2022-09-28T00:34:43;8.60;99.90
69533;DHT22;56729;52.036;5.332;2022-09-28T00:35:54;8.60;99.90
69533;DHT22;56729;52.036;5.332;2022-09-28T00:36:57;8.60;99.90
69533;DHT22;56729;52.036;5.332;2022-09-28T00:38:00;8.50;99.90
69533;DHT22;56729;52.036;5.332;2022-09-28T00:39:07;8.50;99.90
69533;DHT22;56729;52.036;5.332;2022-09-28T00:40:09;8.50;99.90
69533;DHT22;56729;52.036;5.332;2022-09-28T00:41:11;8.50;99.90
69533;DHT22;56729;52.036;5.332;2022-09-28T00:42:17;8.40;99.90
69533;DHT22;56729;52.036;5.332;2022-09-28T00:43:20;8.40;99.90
69533;DHT22;56729;52.036;5.332;2022-09-28T00:45:27;8.40;99.90
69533;DHT22;56729;52.036;5.332;2022-09-28T00:46:34;8.30;99.90
69533;DHT22;56729;52.036;5.332;2022-09-28T00:47:46;8.30;99.90
69533;DHT22;56729;52.036;5.332;2022-09-28T00:48:58;8.30;99.90
69533;DHT22;56729;52.036;5.332;2022-09-28T00:50:18;8.20;99.90
69533;DHT22;56729;52.036;5.332;2022-09-28T00:51:21;8.20;99.90
69533;DHT22;56729;52.036;5.332;2022-09-28T00:52:39;8.20;99.90
69533;DHT22;56729;52.036;5.332;2022-09-28T00:53:43;8.20;99.90
69533;DHT22;56729;52.036;5.332;2022-09-28T00:54:46;8.10;99.90
69533;DHT22;56729;52.036;5.332;2022-09-28T00:56:00;8.10;99.90
69533;DHT22;56729;52.036;5.332;2022-09-28T00:57:04;8.10;99.90
69533;DHT22;56729;52.036;5.332;2022-09-28T00:58:09;8.00;99.90
69533;DHT22;56729;52.036;5.332;2022-09-28T00:59:13;8.00;99.90
69533;DHT22;56729;52.036;5.332;2022-09-28T01:00:15;8.00;99.90
69533;DHT22;56729;52.036;5.332;2022-09-28T01:01:17;8.00;99.90
69533;DHT22;56729;52.036;5.332;2022-09-28T01:02:20;8.00;99.90
69533;DHT22;56729;52.036;5.332;2022-09-28T01:03:23;8.00;99.90
69533;DHT22;56729;52.036;5.332;2022-09-28T01:04:25;8.00;99.90
69533;DHT22;56729;52.036;5.332;2022-09-28T01:05:32;8.00;99.90
69533;DHT22;56729;52.036;5.332;2022-09-28T01:06:35;8.00;99.90
69533;DHT22;56729;52.036;5.332;2022-09-28T01:07:38;8.00;99.90
69533;DHT22;56729;52.036;5.332;2022-09-28T01:08:43;7.90;99.90
69533;DHT22;56729;52.036;5.332;2022-09-28T01:09:47;8.00;99.90
69533;DHT22;56729;52.036;5.332;2022-09-28T01:10:49;8.00;99.90
69533;DHT22;56729;52.036;5.332;2022-09-28T01:11:53;8.00;99.90
69533;DHT22;56729;52.036;5.332;2022-09-28T01:12:55;8.00;99.90
69533;DHT22;56729;52.036;5.332;2022-09-28T01:13:58;8.00;99.90
69533;DHT22;56729;52.036;5.332;2022-09-28T01:15:00;8.00;99.90
69533;DHT22;56729;52.036;5.332;2022-09-28T01:17:15;8.00;99.90
69533;DHT22;56729;52.036;5.332;2022-09-28T01:18:32;8.00;99.90
69533;DHT22;56729;52.036;5.332;2022-09-28T01:21:21;7.90;99.90
69533;DHT22;56729;52.036;5.332;2022-09-28T01:24:32;7.80;99.90
69533;DHT22;56729;52.036;5.332;2022-09-28T01:29:02;7.70;99.90
69533;DHT22;56729;52.036;5.332;2022-09-28T01:30:19;7.70;99.90
69533;DHT22;56729;52.036;5.332;2022-09-28T01:31:25;7.70;99.90
69533;DHT22;56729;52.036;5.332;2022-09-28T01:33:00;7.70;99.90
69533;DHT22;56729;52.036;5.332;2022-09-28T01:34:10;7.70;99.90
69533;DHT22;56729;52.036;5.332;2022-09-28T01:36:48;7.70;99.90
69533;DHT22;56729;52.036;5.332;2022-09-28T01:37:52;7.60;99.90
69533;DHT22;56729;52.036;5.332;2022-09-28T01:39:03;7.60;99.90
69533;DHT22;56729;52.036;5.332;2022-09-28T01:40:08;7.60;99.90
69533;DHT22;56729;52.036;5.332;2022-09-28T01:41:11;7.60;99.90
69533;DHT22;56729;52.036;5.332;2022-09-28T01:42:21;7.60;99.90
69533;DHT22;56729;52.036;5.332;2022-09-28T01:43:26;7.60;99.90
69533;DHT22;56729;52.036;5.332;2022-09-28T01:44:31;7.50;99.90
69533;DHT22;56729;52.036;5.332;2022-09-28T01:45:44;7.60;99.90
69533;DHT22;56729;52.036;5.332;2022-09-28T01:46:49;7.60;99.90
69533;DHT22;56729;52.036;5.332;2022-09-28T01:47:54;7.60;99.90
69533;DHT22;56729;52.036;5.332;2022-09-28T01:49:01;7.60;99.90
69533;DHT22;56729;52.036;5.332;2022-09-28T01:50:17;7.60;99.90
69533;DHT22;56729;52.036;5.332;2022-09-28T01:51:38;7.60;99.90
69533;DHT22;56729;52.036;5.332;2022-09-28T01:52:58;7.60;99.90
69533;DHT22;56729;52.036;5.332;2022-09-28T01:54:12;7.60;99.90
69533;DHT22;56729;52.036;5.332;2022-09-28T01:55:29;7.60;99.90
69533;DHT22;56729;52.036;5.332;2022-09-28T01:56:50;7.60;99.90
69533;DHT22;56729;52.036;5.332;2022-09-28T01:58:07;7.60;99.90
69533;DHT22;56729;52.036;5.332;2022-09-28T01:59:15;7.60;99.90
69533;DHT22;56729;52.036;5.332;2022-09-28T02:00:22;7.60;99.90
69533;DHT22;56729;52.036;5.332;2022-09-28T02:01:40;7.60;99.90
69533;DHT22;56729;52.036;5.332;2022-09-28T02:02:58;7.60;99.90
69533;DHT22;56729;52.036;5.332;2022-09-28T02:05:39;7.50;99.90
69533;DHT22;56729;52.036;5.332;2022-09-28T02:06:57;7.50;99.90
69533;DHT22;56729;52.036;5.332;2022-09-28T02:08:08;7.50;99.90
69533;DHT22;56729;52.036;5.332;2022-09-28T02:09:21;7.50;99.90
69533;DHT22;56729;52.036;5.332;2022-09-28T02:10:48;7.50;99.90
69533;DHT22;56729;52.036;5.332;2022-09-28T02:11:56;7.60;99.90
69533;DHT22;56729;52.036;5.332;2022-09-28T02:13:11;7.50;99.90
69533;DHT22;56729;52.036;5.332;2022-09-28T02:14:16;7.50;99.90
69533;DHT22;56729;52.036;5.332;2022-09-28T02:17:43;7.40;99.90
69533;DHT22;56729;52.036;5.332;2022-09-28T02:18:47;7.40;99.90
69533;DHT22;56729;52.036;5.332;2022-09-28T02:19:49;7.40;99.90
69533;DHT22;56729;52.036;5.332;2022-09-28T02:21:00;7.40;99.90
69533;DHT22;56729;52.036;5.332;2022-09-28T02:22:28;7.50;99.90
69533;DHT22;56729;52.036;5.332;2022-09-28T02:23:35;7.40;99.90
69533;DHT22;56729;52.036;5.332;2022-09-28T02:24:53;7.50;99.90
69533;DHT22;56729;52.036;5.332;2022-09-28T02:26:05;7.50;99.90
69533;DHT22;56729;52.036;5.332;2022-09-28T02:28:08;7.50;99.90
69533;DHT22;56729;52.036;5.332;2022-09-28T02:28:50;7.50;99.90
69533;DHT22;56729;52.036;5.332;2022-09-28T02:29:52;7.50;99.90
69533;DHT22;56729;52.036;5.332;2022-09-28T02:30:55;7.50;99.90
69533;DHT22;56729;52.036;5.332;2022-09-28T02:31:57;7.50;99.90
69533;DHT22;56729;52.036;5.332;2022-09-28T02:33:08;7.50;99.90
69533;DHT22;56729;52.036;5.332;2022-09-28T02:34:12;7.50;99.90
69533;DHT22;56729;52.036;5.332;2022-09-28T02:35:16;7.50;99.90
69533;DHT22;56729;52.036;5.332;2022-09-28T02:36:18;7.50;99.90
69533;DHT22;56729;52.036;5.332;2022-09-28T02:37:20;7.50;99.90
69533;DHT22;56729;52.036;5.332;2022-09-28T02:38:23;7.60;99.90
69533;DHT22;56729;52.036;5.332;2022-09-28T02:39:24;7.60;99.90
69533;DHT22;56729;52.036;5.332;2022-09-28T02:40:32;7.60;99.90
69533;DHT22;56729;52.036;5.332;2022-09-28T02:42:07;7.60;99.90
69533;DHT22;56729;52.036;5.332;2022-09-28T02:43:31;7.60;99.90
69533;DHT22;56729;52.036;5.332;2022-09-28T02:46:12;7.60;99.90
69533;DHT22;56729;52.036;5.332;2022-09-28T02:52:59;7.60;99.90
69533;DHT22;56729;52.036;5.332;2022-09-28T02:54:30;7.60;99.90
69533;DHT22;56729;52.036;5.332;2022-09-28T02:56:09;7.60;99.90
69533;DHT22;56729;52.036;5.332;2022-09-28T02:57:49;7.60;99.90
69533;DHT22;56729;52.036;5.332;2022-09-28T02:59:19;7.60;99.90
69533;DHT22;56729;52.036;5.332;2022-09-28T03:00:25;7.60;99.90
69533;DHT22;56729;52.036;5.332;2022-09-28T03:01:36;7.60;99.90
69533;DHT22;56729;52.036;5.332;2022-09-28T03:03:08;7.60;99.90
69533;DHT22;56729;52.036;5.332;2022-09-28T03:04:27;7.60;99.90
69533;DHT22;56729;52.036;5.332;2022-09-28T03:08:24;7.50;99.90
69533;DHT22;56729;52.036;5.332;2022-09-28T03:09:47;7.50;99.90
69533;DHT22;56729;52.036;5.332;2022-09-28T03:10:57;7.40;99.90
69533;DHT22;56729;52.036;5.332;2022-09-28T03:12:12;7.40;99.90
69533;DHT22;56729;52.036;5.332;2022-09-28T03:13:18;7.40;99.90
69533;DHT22;56729;52.036;5.332;2022-09-28T03:14:21;7.40;99.90
69533;DHT22;56729;52.036;5.332;2022-09-28T03:15:31;7.40;99.90
69533;DHT22;56729;52.036;5.332;2022-09-28T03:16:34;7.40;99.90
69533;DHT22;56729;52.036;5.332;2022-09-28T03:17:36;7.40;99.90
69533;DHT22;56729;52.036;5.332;2022-09-28T03:18:39;7.40;99.90
69533;DHT22;56729;52.036;5.332;2022-09-28T03:19:42;7.40;99.90
69533;DHT22;56729;52.036;5.332;2022-09-28T03:20:44;7.40;99.90
69533;DHT22;56729;52.036;5.332;2022-09-28T03:21:46;7.40;99.90
69533;DHT22;56729;52.036;5.332;2022-09-28T03:22:48;7.50;99.90
69533;DHT22;56729;52.036;5.332;2022-09-28T03:24:10;7.40;99.90
69533;DHT22;56729;52.036;5.332;2022-09-28T03:25:12;7.40;99.90
69533;DHT22;56729;52.036;5.332;2022-09-28T03:26:16;7.40;99.90
69533;DHT22;56729;52.036;5.332;2022-09-28T03:27:19;7.40;99.90
69533;DHT22;56729;52.036;5.332;2022-09-28T03:28:21;7.40;99.90
69533;DHT22;56729;52.036;5.332;2022-09-28T03:29:23;7.40;99.90
69533;DHT22;56729;52.036;5.332;2022-09-28T03:30:31;7.40;99.90
69533;DHT22;56729;52.036;5.332;2022-09-28T03:31:33;7.40;99.90
69533;DHT22;56729;52.036;5.332;2022-09-28T03:32:36;7.40;99.90
69533;DHT22;56729;52.036;5.332;2022-09-28T03:33:38;7.40;99.90
69533;DHT22;56729;52.036;5.332;2022-09-28T03:34:40;7.40;99.90
69533;DHT22;56729;52.036;5.332;2022-09-28T03:35:46;7.30;99.90
69533;DHT22;56729;52.036;5.332;2022-09-28T03:36:48;7.40;99.90
69533;DHT22;56729;52.036;5.332;2022-09-28T03:37:54;7.30;99.90
69533;DHT22;56729;52.036;5.332;2022-09-28T03:38:58;7.30;99.90
69533;DHT22;56729;52.036;5.332;2022-09-28T03:40:01;7.30;99.90
69533;DHT22;56729;52.036;5.332;2022-09-28T03:41:04;7.20;99.90
69533;DHT22;56729;52.036;5.332;2022-09-28T03:42:09;7.20;99.90
69533;DHT22;56729;52.036;5.332;2022-09-28T03:43:14;7.20;99.90
69533;DHT22;56729;52.036;5.332;2022-09-28T03:44:16;7.20;99.90
69533;DHT22;56729;52.036;5.332;2022-09-28T03:45:18;7.20;99.90
69533;DHT22;56729;52.036;5.332;2022-09-28T03:46:23;7.20;99.90
69533;DHT22;56729;52.036;5.332;2022-09-28T03:47:29;7.20;99.90
69533;DHT22;56729;52.036;5.332;2022-09-28T03:48:34;7.20;99.90
69533;DHT22;56729;52.036;5.332;2022-09-28T03:49:36;7.20;99.90
69533;DHT22;56729;52.036;5.332;2022-09-28T03:50:38;7.20;99.90
69533;DHT22;56729;52.036;5.332;2022-09-28T03:51:43;7.10;99.90
69533;DHT22;56729;52.036;5.332;2022-09-28T03:52:44;7.10;99.90
69533;DHT22;56729;52.036;5.332;2022-09-28T03:53:46;7.10;99.90
69533;DHT22;56729;52.036;5.332;2022-09-28T03:54:48;7.10;99.90
69533;DHT22;56729;52.036;5.332;2022-09-28T03:55:50;7.10;99.90
69533;DHT22;56729;52.036;5.332;2022-09-28T03:56:54;7.10;99.90
69533;DHT22;56729;52.036;5.332;2022-09-28T03:57:56;7.00;99.90
69533;DHT22;56729;52.036;5.332;2022-09-28T03:58:58;7.00;99.90
69533;DHT22;56729;52.036;5.332;2022-09-28T04:00:01;7.00;99.90
69533;DHT22;56729;52.036;5.332;2022-09-28T04:01:05;7.00;99.90
69533;DHT22;56729;52.036;5.332;2022-09-28T04:02:07;7.00;99.90
69533;DHT22;56729;52.036;5.332;2022-09-28T04:03:09;7.00;99.90
69533;DHT22;56729;52.036;5.332;2022-09-28T04:04:12;7.00;99.90
69533;DHT22;56729;52.036;5.332;2022-09-28T04:05:14;7.00;99.90
69533;DHT22;56729;52.036;5.332;2022-09-28T04:06:16;7.00;99.90
69533;DHT22;56729;52.036;5.332;2022-09-28T04:07:17;7.00;99.90
69533;DHT22;56729;52.036;5.332;2022-09-28T04:08:20;7.00;99.90
69533;DHT22;56729;52.036;5.332;2022-09-28T04:09:22;7.00;99.90
69533;DHT22;56729;52.036;5.332;2022-09-28T04:10:25;7.00;99.90
69533;DHT22;56729;52.036;5.332;2022-09-28T04:11:27;7.00;99.90
69533;DHT22;56729;52.036;5.332;2022-09-28T04:12:53;7.00;99.90
69533;DHT22;56729;52.036;5.332;2022-09-28T04:13:55;6.90;99.90
69533;DHT22;56729;52.036;5.332;2022-09-28T04:14:57;6.90;99.90
69533;DHT22;56729;52.036;5.332;2022-09-28T04:16:00;6.90;99.90
69533;DHT22;56729;52.036;5.332;2022-09-28T04:17:07;6.90;99.90
69533;DHT22;56729;52.036;5.332;2022-09-28T04:18:11;6.90;99.90
69533;DHT22;56729;52.036;5.332;2022-09-28T04:19:39;6.90;99.90
69533;DHT22;56729;52.036;5.332;2022-09-28T04:21:16;6.90;99.90
69533;DHT22;56729;52.036;5.332;2022-09-28T04:22:20;6.90;99.90
69533;DHT22;56729;52.036;5.332;2022-09-28T04:23:22;6.90;99.90
69533;DHT22;56729;52.036;5.332;2022-09-28T04:24:24;6.90;99.90
69533;DHT22;56729;52.036;5.332;2022-09-28T04:25:27;6.90;99.90
69533;DHT22;56729;52.036;5.332;2022-09-28T04:26:30;6.90;99.90
69533;DHT22;56729;52.036;5.332;2022-09-28T04:27:32;6.80;99.90
69533;DHT22;56729;52.036;5.332;2022-09-28T04:28:52;6.90;99.90
69533;DHT22;56729;52.036;5.332;2022-09-28T04:30:13;6.80;99.90
69533;DHT22;56729;52.036;5.332;2022-09-28T04:31:22;6.80;99.90
69533;DHT22;56729;52.036;5.332;2022-09-28T04:32:24;6.80;99.90
69533;DHT22;56729;52.036;5.332;2022-09-28T04:33:26;6.80;99.90
69533;DHT22;56729;52.036;5.332;2022-09-28T04:34:28;6.80;99.90
69533;DHT22;56729;52.036;5.332;2022-09-28T04:35:36;6.80;99.90
69533;DHT22;56729;52.036;5.332;2022-09-28T04:36:38;6.80;99.90
69533;DHT22;56729;52.036;5.332;2022-09-28T04:37:40;6.80;99.90
69533;DHT22;56729;52.036;5.332;2022-09-28T04:38:42;6.80;99.90
69533;DHT22;56729;52.036;5.332;2022-09-28T04:40:02;6.70;99.90
69533;DHT22;56729;52.036;5.332;2022-09-28T04:41:05;6.80;99.90
69533;DHT22;56729;52.036;5.332;2022-09-28T04:42:09;6.80;99.90
69533;DHT22;56729;52.036;5.332;2022-09-28T04:43:12;6.80;99.90
69533;DHT22;56729;52.036;5.332;2022-09-28T04:44:15;6.80;99.90
69533;DHT22;56729;52.036;5.332;2022-09-28T04:45:18;6.80;99.90
69533;DHT22;56729;52.036;5.332;2022-09-28T04:46:20;6.80;99.90
69533;DHT22;56729;52.036;5.332;2022-09-28T04:47:31;6.80;99.90
69533;DHT22;56729;52.036;5.332;2022-09-28T04:49:02;6.80;99.90
69533;DHT22;56729;52.036;5.332;2022-09-28T04:50:19;6.80;99.90
69533;DHT22;56729;52.036;5.332;2022-09-28T04:51:39;6.70;99.90
69533;DHT22;56729;52.036;5.332;2022-09-28T04:52:43;6.70;99.90
69533;DHT22;56729;52.036;5.332;2022-09-28T04:53:45;6.70;99.90
69533;DHT22;56729;52.036;5.332;2022-09-28T04:54:47;6.70;99.90
69533;DHT22;56729;52.036;5.332;2022-09-28T04:56:17;6.70;99.90
69533;DHT22;56729;52.036;5.332;2022-09-28T04:57:19;6.60;99.90
69533;DHT22;56729;52.036;5.332;2022-09-28T04:58:21;6.60;99.90
69533;DHT22;56729;52.036;5.332;2022-09-28T04:59:24;6.60;99.90
69533;DHT22;56729;52.036;5.332;2022-09-28T05:00:27;6.60;99.90
69533;DHT22;56729;52.036;5.332;2022-09-28T05:01:40;6.60;99.90
69533;DHT22;56729;52.036;5.332;2022-09-28T05:03:00;6.60;99.90
69533;DHT22;56729;52.036;5.332;2022-09-28T05:04:38;6.60;99.90
69533;DHT22;56729;52.036;5.332;2022-09-28T05:05:46;6.60;99.90
69533;DHT22;56729;52.036;5.332;2022-09-28T05:07:13;6.60;99.90
69533;DHT22;56729;52.036;5.332;2022-09-28T05:08:15;6.60;99.90
69533;DHT22;56729;52.036;5.332;2022-09-28T05:09:18;6.60;99.90
69533;DHT22;56729;52.036;5.332;2022-09-28T05:10:21;6.60;99.90
69533;DHT22;56729;52.036;5.332;2022-09-28T05:11:25;6.60;99.90
69533;DHT22;56729;52.036;5.332;2022-09-28T05:12:27;6.50;99.90
69533;DHT22;56729;52.036;5.332;2022-09-28T05:13:30;6.50;99.90
69533;DHT22;56729;52.036;5.332;2022-09-28T05:14:32;6.50;99.90
69533;DHT22;56729;52.036;5.332;2022-09-28T05:15:35;6.50;99.90
69533;DHT22;56729;52.036;5.332;2022-09-28T05:16:37;6.40;99.90
69533;DHT22;56729;52.036;5.332;2022-09-28T05:17:54;6.40;99.90
69533;DHT22;56729;52.036;5.332;2022-09-28T05:19:10;6.40;99.90
69533;DHT22;56729;52.036;5.332;2022-09-28T05:20:13;6.40;99.90
69533;DHT22;56729;52.036;5.332;2022-09-28T05:21:15;6.40;99.90
69533;DHT22;56729;52.036;5.332;2022-09-28T05:22:20;6.40;99.90
69533;DHT22;56729;52.036;5.332;2022-09-28T05:23:22;6.40;99.90
69533;DHT22;56729;52.036;5.332;2022-09-28T05:24:27;6.40;99.90
69533;DHT22;56729;52.036;5.332;2022-09-28T05:25:30;6.40;99.90
69533;DHT22;56729;52.036;5.332;2022-09-28T05:26:49;6.40;99.90
69533;DHT22;56729;52.036;5.332;2022-09-28T05:27:57;6.40;99.90
69533;DHT22;56729;52.036;5.332;2022-09-28T05:29:27;6.40;99.90
69533;DHT22;56729;52.036;5.332;2022-09-28T05:30:51;6.30;99.90
69533;DHT22;56729;52.036;5.332;2022-09-28T05:32:03;6.30;99.90
69533;DHT22;56729;52.036;5.332;2022-09-28T05:33:32;6.40;99.90
69533;DHT22;56729;52.036;5.332;2022-09-28T05:34:44;6.30;99.90
69533;DHT22;56729;52.036;5.332;2022-09-28T05:35:52;6.30;99.90
69533;DHT22;56729;52.036;5.332;2022-09-28T05:37:00;6.30;99.90
69533;DHT22;56729;52.036;5.332;2022-09-28T05:38:03;6.30;99.90
69533;DHT22;56729;52.036;5.332;2022-09-28T05:39:07;6.30;99.90
69533;DHT22;56729;52.036;5.332;2022-09-28T05:40:10;6.30;99.90
69533;DHT22;56729;52.036;5.332;2022-09-28T05:41:12;6.30;99.90
69533;DHT22;56729;52.036;5.332;2022-09-28T05:42:14;6.30;99.90
69533;DHT22;56729;52.036;5.332;2022-09-28T05:43:16;6.30;99.90
69533;DHT22;56729;52.036;5.332;2022-09-28T05:44:18;6.30;99.90
69533;DHT22;56729;52.036;5.332;2022-09-28T05:45:21;6.30;99.90
69533;DHT22;56729;52.036;5.332;2022-09-28T05:46:23;6.30;99.90
69533;DHT22;56729;52.036;5.332;2022-09-28T05:47:26;6.30;99.90
69533;DHT22;56729;52.036;5.332;2022-09-28T05:48:28;6.30;99.90
69533;DHT22;56729;52.036;5.332;2022-09-28T05:49:31;6.30;99.90
69533;DHT22;56729;52.036;5.332;2022-09-28T05:50:34;6.30;99.90
69533;DHT22;56729;52.036;5.332;2022-09-28T05:51:37;6.30;99.90
69533;DHT22;56729;52.036;5.332;2022-09-28T05:52:39;6.30;99.90
69533;DHT22;56729;52.036;5.332;2022-09-28T05:53:42;6.30;99.90
69533;DHT22;56729;52.036;5.332;2022-09-28T05:54:45;6.30;99.90
69533;DHT22;56729;52.036;5.332;2022-09-28T05:55:47;6.30;99.90
69533;DHT22;56729;52.036;5.332;2022-09-28T05:56:50;6.30;99.90
69533;DHT22;56729;52.036;5.332;2022-09-28T05:57:51;6.30;99.90
69533;DHT22;56729;52.036;5.332;2022-09-28T05:58:54;6.30;99.90
69533;DHT22;56729;52.036;5.332;2022-09-28T06:00:04;6.30;99.90
69533;DHT22;56729;52.036;5.332;2022-09-28T06:01:13;6.30;99.90
69533;DHT22;56729;52.036;5.332;2022-09-28T06:02:15;6.30;99.90
69533;DHT22;56729;52.036;5.332;2022-09-28T06:03:17;6.30;99.90
69533;DHT22;56729;52.036;5.332;2022-09-28T06:04:19;6.30;99.90
69533;DHT22;56729;52.036;5.332;2022-09-28T06:05:25;6.30;99.90
69533;DHT22;56729;52.036;5.332;2022-09-28T06:06:27;6.30;99.90
69533;DHT22;56729;52.036;5.332;2022-09-28T06:07:30;6.30;99.90
69533;DHT22;56729;52.036;5.332;2022-09-28T06:08:32;6.30;99.90
69533;DHT22;56729;52.036;5.332;2022-09-28T06:09:48;6.30;99.90
69533;DHT22;56729;52.036;5.332;2022-09-28T06:11:05;6.20;99.90
69533;DHT22;56729;52.036;5.332;2022-09-28T06:12:07;6.20;99.90
69533;DHT22;56729;52.036;5.332;2022-09-28T06:13:16;6.20;99.90
69533;DHT22;56729;52.036;5.332;2022-09-28T06:14:18;6.20;99.90
69533;DHT22;56729;52.036;5.332;2022-09-28T06:15:21;6.20;99.90
69533;DHT22;56729;52.036;5.332;2022-09-28T06:16:24;6.20;99.90
69533;DHT22;56729;52.036;5.332;2022-09-28T06:17:27;6.20;99.90
69533;DHT22;56729;52.036;5.332;2022-09-28T06:18:49;6.20;99.90
69533;DHT22;56729;52.036;5.332;2022-09-28T06:20:07;6.20;99.90
69533;DHT22;56729;52.036;5.332;2022-09-28T06:21:22;6.20;99.90
69533;DHT22;56729;52.036;5.332;2022-09-28T06:22:24;6.10;99.90
69533;DHT22;56729;52.036;5.332;2022-09-28T06:23:33;6.10;99.90
69533;DHT22;56729;52.036;5.332;2022-09-28T06:24:35;6.10;99.90
69533;DHT22;56729;52.036;5.332;2022-09-28T06:25:37;6.20;99.90
69533;DHT22;56729;52.036;5.332;2022-09-28T06:26:39;6.20;99.90
69533;DHT22;56729;52.036;5.332;2022-09-28T06:27:41;6.20;99.90
69533;DHT22;56729;52.036;5.332;2022-09-28T06:28:44;6.20;99.90
69533;DHT22;56729;52.036;5.332;2022-09-28T06:29:46;6.20;99.90
69533;DHT22;56729;52.036;5.332;2022-09-28T06:30:47;6.20;99.90
69533;DHT22;56729;52.036;5.332;2022-09-28T06:31:51;6.20;99.90
69533;DHT22;56729;52.036;5.332;2022-09-28T06:32:55;6.10;99.90
69533;DHT22;56729;52.036;5.332;2022-09-28T06:33:57;6.10;99.90
69533;DHT22;56729;52.036;5.332;2022-09-28T06:34:59;6.10;99.90
69533;DHT22;56729;52.036;5.332;2022-09-28T06:36:01;6.10;99.90
69533;DHT22;56729;52.036;5.332;2022-09-28T06:37:03;6.10;99.90
69533;DHT22;56729;52.036;5.332;2022-09-28T06:38:06;6.10;99.90
69533;DHT22;56729;52.036;5.332;2022-09-28T06:39:08;6.10;99.90
69533;DHT22;56729;52.036;5.332;2022-09-28T06:40:10;6.10;99.90
69533;DHT22;56729;52.036;5.332;2022-09-28T06:41:12;6.10;99.90
69533;DHT22;56729;52.036;5.332;2022-09-28T06:42:15;6.10;99.90
69533;DHT22;56729;52.036;5.332;2022-09-28T06:43:47;6.10;99.90
69533;DHT22;56729;52.036;5.332;2022-09-28T06:45:12;6.10;99.90
69533;DHT22;56729;52.036;5.332;2022-09-28T06:46:33;6.10;99.90
69533;DHT22;56729;52.036;5.332;2022-09-28T06:48:16;6.10;99.90
69533;DHT22;56729;52.036;5.332;2022-09-28T06:49:18;6.10;99.90
69533;DHT22;56729;52.036;5.332;2022-09-28T06:50:39;6.20;99.90
69533;DHT22;56729;52.036;5.332;2022-09-28T06:51:56;6.20;99.90
69533;DHT22;56729;52.036;5.332;2022-09-28T06:53:21;6.20;99.90
69533;DHT22;56729;52.036;5.332;2022-09-28T06:54:29;6.30;99.90
69533;DHT22;56729;52.036;5.332;2022-09-28T06:55:40;6.30;99.90
69533;DHT22;56729;52.036;5.332;2022-09-28T06:56:42;6.30;99.90
69533;DHT22;56729;52.036;5.332;2022-09-28T06:57:43;6.30;99.90
69533;DHT22;56729;52.036;5.332;2022-09-28T06:58:46;6.40;99.90
69533;DHT22;56729;52.036;5.332;2022-09-28T06:59:48;6.40;99.90
69533;DHT22;56729;52.036;5.332;2022-09-28T07:00:50;6.40;99.90
69533;DHT22;56729;52.036;5.332;2022-09-28T07:01:53;6.40;99.90
69533;DHT22;56729;52.036;5.332;2022-09-28T07:03:18;6.40;99.90
69533;DHT22;56729;52.036;5.332;2022-09-28T07:04:41;6.50;99.90
69533;DHT22;56729;52.036;5.332;2022-09-28T07:05:48;6.50;99.90
69533;DHT22;56729;52.036;5.332;2022-09-28T07:07:10;6.50;99.90
69533;DHT22;56729;52.036;5.332;2022-09-28T07:08:31;6.50;99.90
69533;DHT22;56729;52.036;5.332;2022-09-28T07:09:39;6.50;99.90
69533;DHT22;56729;52.036;5.332;2022-09-28T07:11:05;6.60;99.90
69533;DHT22;56729;52.036;5.332;2022-09-28T07:12:30;6.60;99.90
69533;DHT22;56729;52.036;5.332;2022-09-28T07:13:35;6.60;99.90
69533;DHT22;56729;52.036;5.332;2022-09-28T07:14:52;6.60;99.90
69533;DHT22;56729;52.036;5.332;2022-09-28T07:16:00;6.70;99.90
69533;DHT22;56729;52.036;5.332;2022-09-28T07:17:02;6.70;99.90
69533;DHT22;56729;52.036;5.332;2022-09-28T07:18:16;6.70;99.90
69533;DHT22;56729;52.036;5.332;2022-09-28T07:19:18;6.70;99.90
69533;DHT22;56729;52.036;5.332;2022-09-28T07:20:20;6.80;99.90
69533;DHT22;56729;52.036;5.332;2022-09-28T07:21:24;6.80;99.90
69533;DHT22;56729;52.036;5.332;2022-09-28T07:22:33;6.80;99.90
69533;DHT22;56729;52.036;5.332;2022-09-28T07:23:47;6.80;99.90
69533;DHT22;56729;52.036;5.332;2022-09-28T07:24:57;6.90;99.90
69533;DHT22;56729;52.036;5.332;2022-09-28T07:26:18;6.90;99.90
69533;DHT22;56729;52.036;5.332;2022-09-28T07:28:00;6.90;99.90
69533;DHT22;56729;52.036;5.332;2022-09-28T07:29:25;6.90;99.90
69533;DHT22;56729;52.036;5.332;2022-09-28T07:30:34;6.90;99.90
69533;DHT22;56729;52.036;5.332;2022-09-28T07:31:45;6.90;99.90
69533;DHT22;56729;52.036;5.332;2022-09-28T07:33:08;7.00;99.90
69533;DHT22;56729;52.036;5.332;2022-09-28T07:34:22;7.00;99.90
69533;DHT22;56729;52.036;5.332;2022-09-28T07:35:32;7.00;99.90
69533;DHT22;56729;52.036;5.332;2022-09-28T07:36:35;7.10;99.90
69533;DHT22;56729;52.036;5.332;2022-09-28T07:37:37;7.10;99.90
69533;DHT22;56729;52.036;5.332;2022-09-28T07:38:39;7.10;99.90
69533;DHT22;56729;52.036;5.332;2022-09-28T07:39:41;7.20;99.90
69533;DHT22;56729;52.036;5.332;2022-09-28T07:41:04;7.20;99.90